sensor_id;sensor_type;location;lat;lon;timestamp;pressure;altitude;pressure_sealevel;temperature;humidity
62237;BME280;69163;48.778;2.308;2024-03-25T00:01:33;100277.15;;;20.66;26.07
62237;BME280;69163;48.778;2.308;2024-03-25T00:03:58;100271.30;;;20.76;25.93
62237;BME280;69163;48.778;2.308;2024-03-25T00:06:23;100267.11;;;21.08;25.79
62237;BME280;69163;48.778;2.308;2024-03-25T00:08:48;100263.43;;;21.38;25.67
62237;BME280;69163;48.778;2.308;2024-03-25T00:11:14;100259.47;;;21.11;25.64
62237;BME280;69163;48.778;2.308;2024-03-25T00:13:39;100264.58;;;21.39;25.52
62237;BME280;69163;48.778;2.308;2024-03-25T00:16:05;100269.02;;;21.44;25.49
62237;BME280;69163;48.778;2.308;2024-03-25T00:18:30;100265.66;;;21.03;25.39
62237;BME280;69163;48.778;2.308;2024-03-25T00:20:55;100265.63;;;21.07;25.30
62237;BME280;69163;48.778;2.308;2024-03-25T00:23:20;100260.55;;;21.13;25.23
62237;BME280;69163;48.778;2.308;2024-03-25T00:25:45;100260.54;;;21.14;25.10
62237;BME280;69163;48.778;2.308;2024-03-25T00:28:10;100260.35;;;21.11;25.10
62237;BME280;69163;48.778;2.308;2024-03-25T00:30:36;100260.10;;;20.90;25.06
62237;BME280;69163;48.778;2.308;2024-03-25T00:33:01;100259.23;;;21.08;25.02
62237;BME280;69163;48.778;2.308;2024-03-25T00:35:27;100257.89;;;21.64;24.95
62237;BME280;69163;48.778;2.308;2024-03-25T00:37:51;100249.76;;;21.11;24.95
62237;BME280;69163;48.778;2.308;2024-03-25T00:40:17;100247.09;;;21.12;24.91
62237;BME280;69163;48.778;2.308;2024-03-25T00:42:42;100249.15;;;21.17;24.82
62237;BME280;69163;48.778;2.308;2024-03-25T00:45:08;100246.67;;;21.18;24.79
62237;BME280;69163;48.778;2.308;2024-03-25T00:47:32;100240.82;;;21.36;24.78
62237;BME280;69163;48.778;2.308;2024-03-25T00:49:58;100236.90;;;21.56;24.77
62237;BME280;69163;48.778;2.308;2024-03-25T00:52:23;100231.48;;;21.54;24.74
62237;BME280;69163;48.778;2.308;2024-03-25T00:54:48;100227.33;;;21.26;24.77
62237;BME280;69163;48.778;2.308;2024-03-25T00:57:14;100218.92;;;21.07;24.69
62237;BME280;69163;48.778;2.308;2024-03-25T00:59:39;100215.23;;;21.05;24.70
62237;BME280;69163;48.778;2.308;2024-03-25T01:02:04;100213.26;;;20.81;24.67
62237;BME280;69163;48.778;2.308;2024-03-25T01:04:29;100209.13;;;21.05;24.62
62237;BME280;69163;48.778;2.308;2024-03-25T01:06:54;100201.07;;;21.07;24.58
62237;BME280;69163;48.778;2.308;2024-03-25T01:09:20;100194.68;;;21.04;24.58
62237;BME280;69163;48.778;2.308;2024-03-25T01:11:45;100192.06;;;21.01;24.56
62237;BME280;69163;48.778;2.308;2024-03-25T01:14:11;100187.49;;;20.98;24.56
62237;BME280;69163;48.778;2.308;2024-03-25T01:16:36;100182.30;;;21.05;24.48
62237;BME280;69163;48.778;2.308;2024-03-25T01:19:01;100185.27;;;21.05;24.48
62237;BME280;69163;48.778;2.308;2024-03-25T01:21:27;100188.31;;;21.13;24.41
62237;BME280;69163;48.778;2.308;2024-03-25T01:23:52;100189.79;;;21.17;24.33
62237;BME280;69163;48.778;2.308;2024-03-25T01:26:17;100184.93;;;20.91;24.31
62237;BME280;69163;48.778;2.308;2024-03-25T01:28:42;100178.89;;;21.14;24.28
62237;BME280;69163;48.778;2.308;2024-03-25T01:31:08;100176.15;;;21.16;24.25
62237;BME280;69163;48.778;2.308;2024-03-25T01:33:33;100164.00;;;21.10;24.25
62237;BME280;69163;48.778;2.308;2024-03-25T01:35:59;100161.48;;;21.16;24.22
62237;BME280;69163;48.778;2.308;2024-03-25T01:38:23;100157.50;;;20.91;24.18
62237;BME280;69163;48.778;2.308;2024-03-25T01:40:48;100156.84;;;21.17;24.15
62237;BME280;69163;48.778;2.308;2024-03-25T01:43:14;100153.43;;;21.21;24.08
62237;BME280;69163;48.778;2.308;2024-03-25T01:45:39;100144.68;;;21.22;24.05
62237;BME280;69163;48.778;2.308;2024-03-25T01:48:07;100141.89;;;21.21;24.03
62237;BME280;69163;48.778;2.308;2024-03-25T01:50:30;100143.03;;;21.24;23.99
62237;BME280;69163;48.778;2.308;2024-03-25T01:52:55;100141.14;;;20.99;23.98
62237;BME280;69163;48.778;2.308;2024-03-25T01:55:22;100139.29;;;21.25;23.94
62237;BME280;69163;48.778;2.308;2024-03-25T01:57:46;100129.61;;;21.24;23.93
62237;BME280;69163;48.778;2.308;2024-03-25T02:00:11;100122.91;;;21.24;23.91
62237;BME280;69163;48.778;2.308;2024-03-25T02:02:36;100117.95;;;21.22;23.92
62237;BME280;69163;48.778;2.308;2024-03-25T02:05:01;100113.09;;;20.98;23.88
62237;BME280;69163;48.778;2.308;2024-03-25T02:07:27;100108.52;;;21.46;23.87
62237;BME280;69163;48.778;2.308;2024-03-25T02:09:53;100105.18;;;21.23;23.85
62237;BME280;69163;48.778;2.308;2024-03-25T02:12:17;100098.56;;;21.24;23.80
62237;BME280;69163;48.778;2.308;2024-03-25T02:14:42;100093.36;;;21.24;23.79
62237;BME280;69163;48.778;2.308;2024-03-25T02:17:07;100089.57;;;21.46;23.80
62237;BME280;69163;48.778;2.308;2024-03-25T02:19:33;100088.87;;;21.18;23.82
62237;BME280;69163;48.778;2.308;2024-03-25T02:21:59;100084.19;;;21.22;23.77
62237;BME280;69163;48.778;2.308;2024-03-25T02:24:24;100080.60;;;20.95;23.76
62237;BME280;69163;48.778;2.308;2024-03-25T02:26:48;100077.94;;;21.14;23.78
62237;BME280;69163;48.778;2.308;2024-03-25T02:29:14;100077.56;;;21.40;23.75
62237;BME280;69163;48.778;2.308;2024-03-25T02:31:39;100075.99;;;21.13;23.78
62237;BME280;69163;48.778;2.308;2024-03-25T02:34:04;100070.85;;;21.17;23.71
62237;BME280;69163;48.778;2.308;2024-03-25T02:36:29;100072.55;;;21.10;23.78
62237;BME280;69163;48.778;2.308;2024-03-25T02:38:55;100072.98;;;21.07;23.77
62237;BME280;69163;48.778;2.308;2024-03-25T02:41:20;100073.59;;;21.09;23.76
62237;BME280;69163;48.778;2.308;2024-03-25T02:43:46;100066.19;;;20.78;23.78
62237;BME280;69163;48.778;2.308;2024-03-25T02:46:12;100057.86;;;21.03;23.75
62237;BME280;69163;48.778;2.308;2024-03-25T02:48:35;100054.87;;;20.95;23.80
62237;BME280;69163;48.778;2.308;2024-03-25T02:51:01;100054.81;;;21.00;23.76
62237;BME280;69163;48.778;2.308;2024-03-25T02:53:27;100057.81;;;21.02;23.73
62237;BME280;69163;48.778;2.308;2024-03-25T02:55:52;100057.94;;;21.46;23.75
62237;BME280;69163;48.778;2.308;2024-03-25T02:58:17;100055.48;;;20.94;23.77
62237;BME280;69163;48.778;2.308;2024-03-25T03:00:42;100052.70;;;20.93;23.76
62237;BME280;69163;48.778;2.308;2024-03-25T03:03:07;100048.47;;;20.72;23.73
62237;BME280;69163;48.778;2.308;2024-03-25T03:05:32;100045.93;;;20.97;23.69
62237;BME280;69163;48.778;2.308;2024-03-25T03:07:59;100047.12;;;21.42;23.71
62237;BME280;69163;48.778;2.308;2024-03-25T03:10:24;100043.48;;;21.19;23.69
62237;BME280;69163;48.778;2.308;2024-03-25T03:12:49;100038.28;;;21.14;23.71
62237;BME280;69163;48.778;2.308;2024-03-25T03:15:14;100037.63;;;20.94;23.68
62237;BME280;69163;48.778;2.308;2024-03-25T03:17:39;100031.28;;;20.91;23.70
62237;BME280;69163;48.778;2.308;2024-03-25T03:20:05;100034.16;;;20.89;23.71
62237;BME280;69163;48.778;2.308;2024-03-25T03:22:29;100035.56;;;20.90;23.68
62237;BME280;69163;48.778;2.308;2024-03-25T03:24:55;100030.93;;;20.90;23.67
62237;BME280;69163;48.778;2.308;2024-03-25T03:27:20;100022.07;;;21.38;23.65
62237;BME280;69163;48.778;2.308;2024-03-25T03:29:45;100013.34;;;20.67;23.63
62237;BME280;69163;48.778;2.308;2024-03-25T03:32:11;100009.96;;;20.90;23.61
62237;BME280;69163;48.778;2.308;2024-03-25T03:34:36;100004.45;;;20.88;23.63
62237;BME280;69163;48.778;2.308;2024-03-25T03:37:02;100000.88;;;20.88;23.63
62237;BME280;69163;48.778;2.308;2024-03-25T03:39:26;99999.58;;;20.86;23.62
62237;BME280;69163;48.778;2.308;2024-03-25T03:41:52;100003.92;;;21.34;23.61
62237;BME280;69163;48.778;2.308;2024-03-25T03:44:17;100000.75;;;21.33;23.60
62237;BME280;69163;48.778;2.308;2024-03-25T03:46:42;99998.37;;;20.85;23.58
62237;BME280;69163;48.778;2.308;2024-03-25T03:49:07;99992.95;;;20.86;23.56
62237;BME280;69163;48.778;2.308;2024-03-25T03:51:33;99990.68;;;20.85;23.57
62237;BME280;69163;48.778;2.308;2024-03-25T03:53:58;99989.83;;;20.83;23.57
62237;BME280;69163;48.778;2.308;2024-03-25T03:56:23;99988.52;;;20.84;23.57
62237;BME280;69163;48.778;2.308;2024-03-25T03:58:48;99985.37;;;21.32;23.56
62237;BME280;69163;48.778;2.308;2024-03-25T04:01:16;99983.66;;;20.81;23.56
62237;BME280;69163;48.778;2.308;2024-03-25T04:03:39;99975.60;;;21.04;23.58
62237;BME280;69163;48.778;2.308;2024-03-25T04:06:08;99973.99;;;20.79;23.58
62237;BME280;69163;48.778;2.308;2024-03-25T04:08:30;99974.31;;;20.77;23.58
62237;BME280;69163;48.778;2.308;2024-03-25T04:10:55;99976.24;;;20.80;23.54
62237;BME280;69163;48.778;2.308;2024-03-25T04:13:19;99967.46;;;20.83;23.49
62237;BME280;69163;48.778;2.308;2024-03-25T04:15:45;99962.26;;;20.83;23.49
62237;BME280;69163;48.778;2.308;2024-03-25T04:18:11;99957.59;;;21.08;23.46
62237;BME280;69163;48.778;2.308;2024-03-25T04:20:38;99955.82;;;20.86;23.43
62237;BME280;69163;48.778;2.308;2024-03-25T04:23:01;99946.90;;;20.91;23.39
62237;BME280;69163;48.778;2.308;2024-03-25T04:25:26;99931.17;;;20.67;23.39
62237;BME280;69163;48.778;2.308;2024-03-25T04:27:52;99924.69;;;20.86;23.35
62237;BME280;69163;48.778;2.308;2024-03-25T04:30:16;99924.04;;;20.85;23.38
62237;BME280;69163;48.778;2.308;2024-03-25T04:32:43;99931.44;;;20.77;23.44
62237;BME280;69163;48.778;2.308;2024-03-25T04:35:08;99929.68;;;21.20;23.50
62237;BME280;69163;48.778;2.308;2024-03-25T04:37:33;99927.37;;;20.68;23.52
62237;BME280;69163;48.778;2.308;2024-03-25T04:39:58;99919.44;;;20.65;23.54
62237;BME280;69163;48.778;2.308;2024-03-25T04:42:24;99914.50;;;20.85;23.58
62237;BME280;69163;48.778;2.308;2024-03-25T04:44:49;99910.01;;;20.62;23.55
62237;BME280;69163;48.778;2.308;2024-03-25T04:47:13;99904.81;;;20.64;23.53
62237;BME280;69163;48.778;2.308;2024-03-25T04:49:39;99907.03;;;21.11;23.55
62237;BME280;69163;48.778;2.308;2024-03-25T04:52:04;99917.02;;;21.09;23.56
62237;BME280;69163;48.778;2.308;2024-03-25T04:54:29;99918.34;;;21.07;23.57
62237;BME280;69163;48.778;2.308;2024-03-25T04:56:55;99909.30;;;20.80;23.57
62237;BME280;69163;48.778;2.308;2024-03-25T04:59:20;99908.47;;;20.55;23.57
62237;BME280;69163;48.778;2.308;2024-03-25T05:01:45;99913.10;;;21.03;23.59
62237;BME280;69163;48.778;2.308;2024-03-25T05:04:10;99905.04;;;20.54;23.58
62237;BME280;69163;48.778;2.308;2024-03-25T05:06:35;99894.08;;;20.80;23.56
62237;BME280;69163;48.778;2.308;2024-03-25T05:09:01;99892.46;;;20.54;23.56
62237;BME280;69163;48.778;2.308;2024-03-25T05:11:26;99895.69;;;21.03;23.55
62237;BME280;69163;48.778;2.308;2024-03-25T05:13:51;99898.32;;;20.55;23.55
62237;BME280;69163;48.778;2.308;2024-03-25T05:16:17;99903.12;;;20.52;23.57
62237;BME280;69163;48.778;2.308;2024-03-25T05:18:42;99900.83;;;20.76;23.57
62237;BME280;69163;48.778;2.308;2024-03-25T05:21:07;99892.78;;;20.49;23.58
62237;BME280;69163;48.778;2.308;2024-03-25T05:23:33;99890.17;;;20.51;23.57
62237;BME280;69163;48.778;2.308;2024-03-25T05:25:58;99887.37;;;20.52;23.53
62237;BME280;69163;48.778;2.308;2024-03-25T05:28:23;99889.17;;;20.74;23.55
62237;BME280;69163;48.778;2.308;2024-03-25T05:30:48;99886.66;;;20.51;23.55
62237;BME280;69163;48.778;2.308;2024-03-25T05:33:14;99885.45;;;20.49;23.56
62237;BME280;69163;48.778;2.308;2024-03-25T05:35:38;99886.63;;;20.24;23.55
62237;BME280;69163;48.778;2.308;2024-03-25T05:38:04;99890.70;;;20.71;23.57
62237;BME280;69163;48.778;2.308;2024-03-25T05:40:29;99888.93;;;20.94;23.58
62237;BME280;69163;48.778;2.308;2024-03-25T05:42:54;99890.62;;;20.71;23.56
62237;BME280;69163;48.778;2.308;2024-03-25T05:45:20;99887.68;;;20.47;23.56
62237;BME280;69163;48.778;2.308;2024-03-25T05:47:45;99886.79;;;20.50;23.53
62237;BME280;69163;48.778;2.308;2024-03-25T05:50:10;99882.52;;;20.94;23.54
62237;BME280;69163;48.778;2.308;2024-03-25T05:52:35;99878.88;;;20.45;23.56
62237;BME280;69163;48.778;2.308;2024-03-25T05:55:00;99878.36;;;20.47;23.54
62237;BME280;69163;48.778;2.308;2024-03-25T05:57:26;99879.62;;;20.72;23.52
62237;BME280;69163;48.778;2.308;2024-03-25T05:59:52;99883.26;;;20.47;23.55
62237;BME280;69163;48.778;2.308;2024-03-25T06:02:17;99881.85;;;20.71;23.53
62237;BME280;69163;48.778;2.308;2024-03-25T06:04:42;99880.31;;;20.45;23.54
62237;BME280;69163;48.778;2.308;2024-03-25T06:07:08;99880.14;;;20.44;23.54
62237;BME280;69163;48.778;2.308;2024-03-25T06:09:33;99876.79;;;20.45;23.53
62237;BME280;69163;48.778;2.308;2024-03-25T06:11:58;99871.67;;;20.45;23.54
62237;BME280;69163;48.778;2.308;2024-03-25T06:14:23;99872.06;;;20.93;23.53
62237;BME280;69163;48.778;2.308;2024-03-25T06:16:49;99865.70;;;20.70;23.52
62237;BME280;69163;48.778;2.308;2024-03-25T06:19:14;99861.44;;;20.70;23.50
62237;BME280;69163;48.778;2.308;2024-03-25T06:21:39;99861.00;;;20.71;23.49
62237;BME280;69163;48.778;2.308;2024-03-25T06:24:06;99852.50;;;20.47;23.49
62237;BME280;69163;48.778;2.308;2024-03-25T06:26:30;99846.61;;;20.71;23.49
62237;BME280;69163;48.778;2.308;2024-03-25T06:28:56;99844.42;;;20.46;23.50
62237;BME280;69163;48.778;2.308;2024-03-25T06:31:21;99844.55;;;20.44;23.52
62237;BME280;69163;48.778;2.308;2024-03-25T06:33:46;99839.08;;;20.46;23.51
62237;BME280;69163;48.778;2.308;2024-03-25T06:36:13;99828.92;;;20.43;23.51
62237;BME280;69163;48.778;2.308;2024-03-25T06:38:36;99829.96;;;20.43;23.52
62237;BME280;69163;48.778;2.308;2024-03-25T06:41:01;99825.73;;;20.45;23.49
62237;BME280;69163;48.778;2.308;2024-03-25T06:43:27;99826.60;;;20.94;23.47
62237;BME280;69163;48.778;2.308;2024-03-25T06:45:52;99821.96;;;20.93;23.49
62237;BME280;69163;48.778;2.308;2024-03-25T06:48:17;99819.55;;;20.72;23.47
62237;BME280;69163;48.778;2.308;2024-03-25T06:50:53;99817.83;;;20.94;23.47
62237;BME280;69163;48.778;2.308;2024-03-25T06:53:08;99816.43;;;20.45;23.47
62237;BME280;69163;48.778;2.308;2024-03-25T06:55:34;99816.38;;;20.43;23.50
62237;BME280;69163;48.778;2.308;2024-03-25T06:58:00;99816.85;;;20.94;23.49
62237;BME280;69163;48.778;2.308;2024-03-25T07:00:24;99814.13;;;20.91;23.49
62237;BME280;69163;48.778;2.308;2024-03-25T07:02:50;99812.33;;;20.93;23.47
62237;BME280;69163;48.778;2.308;2024-03-25T07:05:14;99806.12;;;20.71;23.43
62237;BME280;69163;48.778;2.308;2024-03-25T07:07:40;99800.35;;;20.95;23.57
62237;BME280;69163;48.778;2.308;2024-03-25T07:10:06;99804.16;;;20.88;24.49
62237;BME280;69163;48.778;2.308;2024-03-25T07:12:31;99806.38;;;21.04;24.62
62237;BME280;69163;48.778;2.308;2024-03-25T07:14:56;99801.11;;;20.64;24.81
62237;BME280;69163;48.778;2.308;2024-03-25T07:17:21;99797.20;;;20.91;24.95
62237;BME280;69163;48.778;2.308;2024-03-25T07:19:46;99796.82;;;20.98;25.39
62237;BME280;69163;48.778;2.308;2024-03-25T07:22:12;99802.50;;;20.84;25.51
62237;BME280;69163;48.778;2.308;2024-03-25T07:24:37;99798.82;;;20.96;25.64
62237;BME280;69163;48.778;2.308;2024-03-25T07:27:02;99799.09;;;20.38;25.78
62237;BME280;69163;48.778;2.308;2024-03-25T07:29:27;99798.92;;;20.32;25.87
62237;BME280;69163;48.778;2.308;2024-03-25T07:31:52;99798.00;;;20.91;25.79
62237;BME280;69163;48.778;2.308;2024-03-25T07:34:18;99798.16;;;20.71;25.77
62237;BME280;69163;48.778;2.308;2024-03-25T07:36:43;99797.52;;;20.76;25.70
62237;BME280;69163;48.778;2.308;2024-03-25T07:39:08;99795.89;;;20.53;25.68
62237;BME280;69163;48.778;2.308;2024-03-25T07:41:34;99785.98;;;20.77;25.67
62237;BME280;69163;48.778;2.308;2024-03-25T07:44:00;99780.71;;;20.60;25.49
62237;BME280;69163;48.778;2.308;2024-03-25T07:46:24;99779.17;;;20.87;25.49
62237;BME280;69163;48.778;2.308;2024-03-25T07:48:50;99774.76;;;20.67;25.44
62237;BME280;69163;48.778;2.308;2024-03-25T07:51:15;99769.34;;;20.48;25.38
62237;BME280;69163;48.778;2.308;2024-03-25T07:53:40;99765.75;;;20.78;25.40
62237;BME280;69163;48.778;2.308;2024-03-25T07:56:06;99765.81;;;20.54;25.42
62237;BME280;69163;48.778;2.308;2024-03-25T07:58:31;99763.38;;;20.56;25.42
62237;BME280;69163;48.778;2.308;2024-03-25T08:00:57;99758.85;;;20.51;25.48
62237;BME280;69163;48.778;2.308;2024-03-25T08:03:22;99751.10;;;20.50;25.52
62237;BME280;69163;48.778;2.308;2024-03-25T08:05:47;99745.95;;;20.52;25.69
62237;BME280;69163;48.778;2.308;2024-03-25T08:08:12;99740.63;;;20.54;25.70
62237;BME280;69163;48.778;2.308;2024-03-25T08:10:38;99734.15;;;21.04;25.71
62237;BME280;69163;48.778;2.308;2024-03-25T08:13:03;99731.81;;;20.30;25.74
62237;BME280;69163;48.778;2.308;2024-03-25T08:15:28;99728.38;;;20.50;25.82
62237;BME280;69163;48.778;2.308;2024-03-25T08:17:53;99725.90;;;20.54;25.78
62237;BME280;69163;48.778;2.308;2024-03-25T08:20:18;99722.43;;;20.52;25.77
62237;BME280;69163;48.778;2.308;2024-03-25T08:22:44;99721.82;;;20.52;25.78
62237;BME280;69163;48.778;2.308;2024-03-25T08:25:09;99718.41;;;20.51;25.77
62237;BME280;69163;48.778;2.308;2024-03-25T08:27:34;99712.23;;;20.44;25.80
62237;BME280;69163;48.778;2.308;2024-03-25T08:30:00;99705.09;;;20.50;25.69
62237;BME280;69163;48.778;2.308;2024-03-25T08:32:25;99698.74;;;20.93;25.69
62237;BME280;69163;48.778;2.308;2024-03-25T08:34:50;99697.25;;;20.42;25.73
62237;BME280;69163;48.778;2.308;2024-03-25T08:37:16;99692.57;;;20.65;25.68
62237;BME280;69163;48.778;2.308;2024-03-25T08:39:41;99689.64;;;20.42;25.65
62237;BME280;69163;48.778;2.308;2024-03-25T08:42:06;99690.06;;;20.38;25.67
62237;BME280;69163;48.778;2.308;2024-03-25T08:44:31;99689.11;;;20.36;25.71
62237;BME280;69163;48.778;2.308;2024-03-25T08:46:57;99688.39;;;20.38;25.68
62237;BME280;69163;48.778;2.308;2024-03-25T08:49:22;99690.01;;;20.31;25.71
62237;BME280;69163;48.778;2.308;2024-03-25T08:51:47;99692.21;;;20.55;25.70
62237;BME280;69163;48.778;2.308;2024-03-25T08:54:12;99689.27;;;20.74;25.71
62237;BME280;69163;48.778;2.308;2024-03-25T08:56:37;99689.64;;;20.46;25.71
62237;BME280;69163;48.778;2.308;2024-03-25T08:59:03;99682.36;;;20.19;25.71
62237;BME280;69163;48.778;2.308;2024-03-25T09:01:28;99680.14;;;20.43;25.70
62237;BME280;69163;48.778;2.308;2024-03-25T09:03:53;99672.30;;;20.62;25.73
62237;BME280;69163;48.778;2.308;2024-03-25T09:06:18;99665.63;;;20.16;25.71
62237;BME280;69163;48.778;2.308;2024-03-25T09:08:44;99654.18;;;20.10;25.74
62237;BME280;69163;48.778;2.308;2024-03-25T09:11:09;99650.91;;;20.08;25.78
62237;BME280;69163;48.778;2.308;2024-03-25T09:13:34;99646.52;;;20.52;25.81
62237;BME280;69163;48.778;2.308;2024-03-25T09:15:59;99640.66;;;20.53;25.79
62237;BME280;69163;48.778;2.308;2024-03-25T09:18:25;99638.32;;;20.76;25.78
62237;BME280;69163;48.778;2.308;2024-03-25T09:20:50;99634.63;;;20.47;25.80
62237;BME280;69163;48.778;2.308;2024-03-25T09:23:16;99630.05;;;20.20;25.80
62237;BME280;69163;48.778;2.308;2024-03-25T09:25:51;99627.77;;;20.18;25.82
62237;BME280;69163;48.778;2.308;2024-03-25T09:28:07;99625.98;;;20.37;25.85
62237;BME280;69163;48.778;2.308;2024-03-25T09:30:32;99620.53;;;20.36;25.84
62237;BME280;69163;48.778;2.308;2024-03-25T09:32:57;99619.47;;;20.37;25.84
62237;BME280;69163;48.778;2.308;2024-03-25T09:35:22;99619.99;;;20.36;25.83
62237;BME280;69163;48.778;2.308;2024-03-25T09:37:47;99614.83;;;20.35;25.80
62237;BME280;69163;48.778;2.308;2024-03-25T09:40:12;99603.08;;;20.32;25.80
62237;BME280;69163;48.778;2.308;2024-03-25T09:42:45;99600.15;;;20.32;25.80
62237;BME280;69163;48.778;2.308;2024-03-25T09:45:05;99602.61;;;20.08;25.78
62237;BME280;69163;48.778;2.308;2024-03-25T09:47:28;99595.74;;;20.33;25.78
62237;BME280;69163;48.778;2.308;2024-03-25T09:49:55;99589.18;;;20.10;25.75
62237;BME280;69163;48.778;2.308;2024-03-25T09:52:19;99581.65;;;20.34;25.73
62237;BME280;69163;48.778;2.308;2024-03-25T09:54:44;99581.04;;;20.34;25.71
62237;BME280;69163;48.778;2.308;2024-03-25T09:57:09;99574.03;;;20.35;25.67
62237;BME280;69163;48.778;2.308;2024-03-25T09:59:35;99568.74;;;20.36;25.65
62237;BME280;69163;48.778;2.308;2024-03-25T10:02:02;99565.32;;;20.32;25.67
62237;BME280;69163;48.778;2.308;2024-03-25T10:04:25;99560.43;;;20.38;25.60
62237;BME280;69163;48.778;2.308;2024-03-25T10:06:50;99561.16;;;20.35;25.59
62237;BME280;69163;48.778;2.308;2024-03-25T10:09:19;99560.09;;;20.13;25.57
62237;BME280;69163;48.778;2.308;2024-03-25T10:11:40;99552.58;;;20.34;25.57
62237;BME280;69163;48.778;2.308;2024-03-25T10:14:06;99548.69;;;19.88;25.55
62237;BME280;69163;48.778;2.308;2024-03-25T10:16:31;99544.54;;;20.34;25.55
62237;BME280;69163;48.778;2.308;2024-03-25T10:18:57;99541.09;;;20.37;25.50
62237;BME280;69163;48.778;2.308;2024-03-25T10:21:21;99540.42;;;20.13;25.49
62237;BME280;69163;48.778;2.308;2024-03-25T10:23:47;99534.35;;;19.86;25.51
62237;BME280;69163;48.778;2.308;2024-03-25T10:26:26;99530.89;;;20.37;25.47
62237;BME280;69163;48.778;2.308;2024-03-25T10:28:37;99523.93;;;20.36;25.45
62237;BME280;69163;48.778;2.308;2024-03-25T10:31:04;99516.34;;;20.32;25.45
62237;BME280;69163;48.778;2.308;2024-03-25T10:33:27;99514.39;;;20.08;25.45
62237;BME280;69163;48.778;2.308;2024-03-25T10:35:53;99506.58;;;20.53;25.45
62237;BME280;69163;48.778;2.308;2024-03-25T10:38:19;99500.47;;;20.28;25.45
62237;BME280;69163;48.778;2.308;2024-03-25T10:40:44;99496.86;;;20.29;25.42
62237;BME280;69163;48.778;2.308;2024-03-25T10:43:09;99492.26;;;19.82;25.44
62237;BME280;69163;48.778;2.308;2024-03-25T10:45:36;99485.57;;;20.05;25.42
62237;BME280;69163;48.778;2.308;2024-03-25T10:48:02;99480.19;;;20.27;25.43
62237;BME280;69163;48.778;2.308;2024-03-25T10:50:28;99479.16;;;20.51;25.41
62237;BME280;69163;48.778;2.308;2024-03-25T10:52:51;99471.76;;;20.51;25.38
62237;BME280;69163;48.778;2.308;2024-03-25T10:55:15;99463.90;;;20.30;25.35
62237;BME280;69163;48.778;2.308;2024-03-25T10:57:40;99453.86;;;20.31;25.29
62237;BME280;69163;48.778;2.308;2024-03-25T11:00:07;99453.35;;;20.30;25.30
62237;BME280;69163;48.778;2.308;2024-03-25T11:02:31;99446.96;;;19.80;25.31
62237;BME280;69163;48.778;2.308;2024-03-25T11:04:56;99439.63;;;20.25;25.34
62237;BME280;69163;48.778;2.308;2024-03-25T11:07:30;99434.94;;;20.24;25.32
62237;BME280;69163;48.778;2.308;2024-03-25T11:09:46;99429.03;;;19.78;25.30
62237;BME280;69163;48.778;2.308;2024-03-25T11:12:13;99423.68;;;20.29;25.27
62237;BME280;69163;48.778;2.308;2024-03-25T11:14:37;99413.87;;;20.53;25.24
62237;BME280;69163;48.778;2.308;2024-03-25T11:17:02;99406.76;;;20.26;25.28
62237;BME280;69163;48.778;2.308;2024-03-25T11:19:29;99399.12;;;20.28;25.26
62237;BME280;69163;48.778;2.308;2024-03-25T11:21:54;99388.20;;;20.50;25.27
62237;BME280;69163;48.778;2.308;2024-03-25T11:24:26;99383.43;;;20.26;25.27
62237;BME280;69163;48.778;2.308;2024-03-25T11:26:44;99383.22;;;20.27;25.29
62237;BME280;69163;48.778;2.308;2024-03-25T11:29:09;99378.23;;;20.27;25.26
62237;BME280;69163;48.778;2.308;2024-03-25T11:31:34;99372.49;;;20.27;25.25
62237;BME280;69163;48.778;2.308;2024-03-25T11:34:04;99368.01;;;20.25;25.25
62237;BME280;69163;48.778;2.308;2024-03-25T11:36:25;99356.52;;;20.30;25.19
62237;BME280;69163;48.778;2.308;2024-03-25T11:38:58;99350.26;;;20.54;25.18
62237;BME280;69163;48.778;2.308;2024-03-25T11:41:16;99346.34;;;20.09;25.15
62237;BME280;69163;48.778;2.308;2024-03-25T11:43:42;99336.82;;;20.32;25.19
62237;BME280;69163;48.778;2.308;2024-03-25T11:46:06;99331.94;;;20.31;25.11
62237;BME280;69163;48.778;2.308;2024-03-25T11:48:31;99328.99;;;20.55;25.09
62237;BME280;69163;48.778;2.308;2024-03-25T11:50:57;99321.41;;;20.29;25.12
62237;BME280;69163;48.778;2.308;2024-03-25T11:53:21;99316.65;;;20.32;25.05
62237;BME280;69163;48.778;2.308;2024-03-25T11:55:47;99313.80;;;20.34;25.03
62237;BME280;69163;48.778;2.308;2024-03-25T11:58:12;99310.13;;;20.34;25.01
62237;BME280;69163;48.778;2.308;2024-03-25T12:00:43;99302.59;;;20.32;25.03
62237;BME280;69163;48.778;2.308;2024-03-25T12:03:03;99298.79;;;20.34;25.02
62237;BME280;69163;48.778;2.308;2024-03-25T12:05:28;99292.91;;;20.32;25.05
62237;BME280;69163;48.778;2.308;2024-03-25T12:07:53;99286.86;;;20.33;25.04
62237;BME280;69163;48.778;2.308;2024-03-25T12:10:18;99278.69;;;20.34;25.01
62237;BME280;69163;48.778;2.308;2024-03-25T12:12:44;99274.35;;;20.35;24.98
62237;BME280;69163;48.778;2.308;2024-03-25T12:15:10;99271.33;;;20.36;24.96
62237;BME280;69163;48.778;2.308;2024-03-25T12:17:34;99260.59;;;20.37;24.91
62237;BME280;69163;48.778;2.308;2024-03-25T12:20:02;99256.84;;;20.13;24.91
62237;BME280;69163;48.778;2.308;2024-03-25T12:22:25;99249.12;;;20.14;24.88
62237;BME280;69163;48.778;2.308;2024-03-25T12:24:50;99243.60;;;20.35;24.88
62237;BME280;69163;48.778;2.308;2024-03-25T12:27:15;99242.29;;;20.35;24.85
62237;BME280;69163;48.778;2.308;2024-03-25T12:29:40;99241.26;;;20.36;24.85
62237;BME280;69163;48.778;2.308;2024-03-25T12:32:05;99232.15;;;20.12;24.82
62237;BME280;69163;48.778;2.308;2024-03-25T12:34:30;99223.50;;;20.57;24.83
62237;BME280;69163;48.778;2.308;2024-03-25T12:37:01;99228.95;;;20.59;24.80
62237;BME280;69163;48.778;2.308;2024-03-25T12:39:21;99216.85;;;19.84;24.81
62237;BME280;69163;48.778;2.308;2024-03-25T12:41:46;99213.43;;;20.36;24.76
62237;BME280;69163;48.778;2.308;2024-03-25T12:44:13;99209.68;;;20.14;24.73
62237;BME280;69163;48.778;2.308;2024-03-25T12:46:37;99208.93;;;20.13;24.73